createdAt,value
2019-04-11T00:00:52.940Z,4.53
2019-04-11T00:03:21.650Z,4.57
2019-04-11T00:05:50.791Z,4.57
2019-04-11T00:08:19.665Z,4.54
2019-04-11T00:10:48.989Z,4.48
2019-04-11T00:13:23.805Z,4.46
2019-04-11T00:15:48.785Z,4.37
2019-04-11T00:18:18.590Z,4.37
2019-04-11T00:20:46.851Z,4.36
2019-04-11T00:23:16.078Z,4.35
2019-04-11T00:25:44.427Z,4.33
2019-04-11T00:28:13.178Z,4.33
2019-04-11T00:30:42.191Z,4.30
2019-04-11T00:33:10.409Z,4.17
2019-04-11T00:35:39.767Z,4.17
2019-04-11T00:38:08.088Z,4.24
2019-04-11T00:40:37.362Z,4.26
2019-04-11T00:43:05.580Z,4.23
2019-04-11T00:45:33.938Z,4.21
2019-04-11T00:48:02.154Z,4.22
2019-04-11T00:50:31.528Z,4.20
2019-04-11T00:52:59.749Z,4.15
2019-04-11T00:55:27.962Z,4.15
2019-04-11T00:57:57.107Z,4.17
2019-04-11T01:00:25.324Z,4.15
2019-04-11T01:02:53.754Z,4.11
2019-04-11T01:05:23.506Z,4.13
2019-04-11T01:07:51.747Z,4.14
2019-04-11T01:10:20.353Z,4.14
2019-04-11T01:12:49.788Z,4.16
2019-04-11T01:15:20.156Z,4.16
2019-04-11T01:17:48.353Z,4.21
2019-04-11T01:20:17.475Z,4.22
2019-04-11T01:22:46.605Z,4.29
2019-04-11T01:25:14.828Z,4.29
2019-04-11T01:27:43.020Z,4.29
2019-04-11T01:30:13.738Z,4.30
2019-04-11T01:32:42.319Z,4.30
2019-04-11T01:35:10.941Z,4.27
2019-04-11T01:37:40.253Z,4.27
2019-04-11T01:40:09.863Z,4.27
2019-04-11T01:42:39.528Z,4.24
2019-04-11T01:45:09.420Z,4.23
2019-04-11T01:47:42.718Z,4.25
2019-04-11T01:50:12.569Z,4.30
2019-04-11T01:52:41.021Z,4.30
2019-04-11T01:55:10.296Z,4.30
2019-04-11T01:57:38.520Z,4.30
2019-04-11T02:00:08.049Z,4.30
2019-04-11T02:02:44.410Z,4.30
2019-04-11T02:05:20.945Z,4.30
2019-04-11T02:07:49.125Z,4.26
2019-04-11T02:10:17.334Z,4.25
2019-04-11T02:12:45.658Z,4.23
2019-04-11T02:15:14.371Z,4.20
2019-04-11T02:17:43.225Z,4.20
2019-04-11T02:20:14.627Z,4.17
2019-04-11T02:22:44.521Z,4.17
2019-04-11T02:25:20.578Z,4.14
2019-04-11T02:27:48.782Z,4.14
2019-04-11T02:30:18.887Z,4.17
2019-04-11T02:32:47.988Z,4.16
2019-04-11T02:35:17.794Z,4.19
2019-04-11T02:37:49.556Z,4.21
2019-04-11T02:40:17.690Z,4.16
2019-04-11T02:42:47.484Z,4.09
2019-04-11T02:45:28.572Z,4.09
2019-04-11T02:47:48.124Z,4.08
2019-04-11T02:50:18.645Z,4.07
2019-04-11T02:52:47.200Z,4.05
2019-04-11T02:55:17.098Z,4.01
2019-04-11T02:57:46.008Z,4.01
2019-04-11T03:00:15.894Z,4.07
2019-04-11T03:02:44.615Z,4.09
2019-04-11T03:05:13.733Z,4.01
2019-04-11T03:07:42.443Z,3.97
2019-04-11T03:10:13.437Z,4.01
2019-04-11T03:12:43.318Z,4.01
2019-04-11T03:15:28.747Z,4.03
2019-04-11T03:17:45.601Z,3.99
2019-04-11T03:20:23.094Z,3.99
2019-04-11T03:22:42.690Z,4.05
2019-04-11T03:25:11.690Z,4.07
2019-04-11T03:27:43.059Z,4.12
2019-04-11T03:30:15.124Z,4.12
2019-04-11T03:38:03.618Z,4.03
2019-04-11T03:40:29.142Z,4.01
2019-04-11T03:42:58.613Z,4.03
2019-04-11T03:45:32.808Z,4.09
2019-04-11T03:47:59.178Z,4.09
2019-04-11T03:50:16.594Z,4.11
2019-04-11T03:52:40.865Z,4.06
2019-04-11T03:55:10.993Z,4.15
2019-04-11T03:57:41.691Z,4.15
2019-04-11T04:00:12.444Z,4.13
2019-04-11T04:02:41.340Z,4.16
2019-04-11T04:05:10.656Z,4.15
2019-04-11T04:07:40.369Z,4.15
2019-04-11T04:10:13.122Z,4.10
2019-04-11T04:12:40.243Z,4.11
2019-04-11T04:15:29.624Z,4.07
2019-04-11T04:17:47.782Z,4.08
2019-04-11T04:20:24.635Z,4.04
2019-04-11T04:22:55.124Z,4.02
2019-04-11T04:25:26.056Z,4.03
2019-04-11T04:27:54.714Z,4.02
2019-04-11T04:30:24.696Z,4.02
2019-04-11T04:32:54.540Z,4.11
2019-04-11T04:35:25.244Z,4.06
2019-04-11T04:37:54.419Z,4.06
2019-04-11T04:40:36.017Z,4.05
2019-04-11T04:42:55.992Z,4.01
2019-04-11T04:45:23.840Z,3.99
2019-04-11T04:48:00.457Z,4.03
2019-04-11T04:50:24.388Z,3.97
2019-04-11T04:52:53.546Z,4.03
2019-04-11T04:55:23.377Z,4.04
2019-04-11T04:57:53.309Z,4.02
2019-04-11T05:00:23.395Z,4.02
2019-04-11T05:02:54.906Z,4.08
2019-04-11T05:05:24.346Z,4.11
2019-04-11T05:07:54.028Z,4.15
2019-04-11T05:10:22.354Z,4.13
2019-04-11T05:12:51.368Z,4.07
2019-04-11T05:15:20.850Z,4.06
2019-04-11T05:17:49.249Z,4.06
2019-04-11T05:20:17.432Z,4.09
2019-04-11T05:22:45.696Z,4.06
2019-04-11T05:25:14.754Z,4.06
2019-04-11T05:27:42.985Z,4.03
2019-04-11T05:30:11.463Z,4.06
2019-04-11T05:32:39.689Z,4.06
2019-04-11T05:35:08.965Z,4.08
2019-04-11T05:37:37.773Z,4.07
2019-04-11T05:40:07.263Z,4.08
2019-04-11T05:42:35.613Z,4.11
2019-04-11T05:45:03.960Z,4.11
2019-04-11T05:47:32.175Z,4.14
2019-04-11T05:50:18.060Z,4.17
2019-04-11T05:52:46.260Z,4.21
2019-04-11T05:55:15.565Z,4.19
2019-04-11T05:57:45.065Z,4.19
2019-04-11T06:00:15.851Z,4.24
2019-04-11T06:02:49.207Z,4.25
2019-04-11T06:05:24.460Z,4.22
2019-04-11T06:07:56.478Z,4.22
2019-04-11T06:10:28.290Z,4.28
2019-04-11T06:13:13.206Z,4.31
2019-04-11T06:15:49.270Z,4.31
2019-04-11T06:18:36.932Z,4.38
2019-04-11T06:21:12.298Z,4.44
2019-04-11T06:23:47.879Z,4.45
2019-04-11T06:26:34.545Z,4.50
2019-04-11T06:29:14.689Z,4.52
2019-04-11T06:31:47.951Z,4.61
2019-04-11T06:34:16.169Z,4.71
2019-04-11T06:36:55.298Z,4.76
2019-04-11T06:39:34.018Z,4.81
2019-04-11T06:42:04.810Z,4.92
2019-04-11T06:44:37.655Z,4.99
2019-04-11T06:47:10.389Z,5.02
2019-04-11T06:49:46.758Z,5.09
2019-04-11T06:52:16.815Z,5.19
2019-04-11T06:55:02.784Z,5.29
2019-04-11T06:57:36.259Z,5.23
2019-04-11T07:00:09.169Z,5.20
2019-04-11T07:02:39.028Z,5.19
2019-04-11T07:05:09.170Z,5.08
2019-04-11T07:07:38.505Z,5.25
2019-04-11T07:10:06.966Z,5.25
2019-04-11T07:12:42.759Z,5.38
2019-04-11T07:15:15.340Z,5.52
2019-04-11T07:18:01.150Z,5.41
2019-04-11T07:20:47.852Z,5.41
2019-04-11T07:23:33.641Z,5.62
2019-04-11T07:26:18.870Z,5.77
2019-04-11T07:28:48.718Z,5.92
2019-04-11T07:31:35.529Z,5.91
2019-04-11T07:34:08.790Z,5.96
2019-04-11T07:36:55.814Z,6.10
2019-04-11T07:39:25.679Z,6.10
2019-04-11T07:41:56.039Z,6.15
2019-04-11T07:44:32.360Z,6.08
2019-04-11T07:47:17.126Z,6.02
2019-04-11T07:49:40.871Z,5.96
2019-04-11T07:52:11.045Z,6.06
2019-04-11T07:54:39.241Z,6.06
2019-04-11T07:57:20.632Z,6.17
2019-04-11T07:59:53.651Z,6.28
2019-04-11T08:02:24.473Z,6.40
2019-04-11T08:04:58.336Z,6.50
2019-04-11T08:07:40.496Z,6.39
2019-04-11T08:10:16.700Z,6.46
2019-04-11T08:12:47.873Z,6.44
2019-04-11T08:15:21.634Z,6.44
2019-04-11T08:17:50.137Z,6.48
2019-04-11T08:20:37.388Z,6.43
2019-04-11T08:23:07.500Z,6.30
2019-04-11T08:25:39.754Z,6.30
2019-04-11T08:28:12.406Z,6.18
2019-04-11T08:30:50.950Z,5.50
2019-04-11T08:33:22.418Z,5.50
2019-04-11T08:35:53.988Z,5.28
2019-04-11T08:38:26.692Z,5.31
2019-04-11T08:40:56.528Z,5.53
2019-04-11T08:43:37.486Z,5.81
2019-04-11T08:46:23.520Z,6.22
2019-04-11T08:49:09.798Z,6.85
2019-04-11T08:51:39.108Z,6.85
2019-04-11T08:54:15.420Z,6.96
2019-04-11T08:56:45.143Z,7.08
2019-04-11T08:59:33.455Z,7.08
2019-04-11T09:02:02.691Z,7.27
2019-04-11T09:04:48.669Z,7.27
2019-04-11T09:07:19.187Z,7.31
2019-04-11T09:09:55.629Z,7.33
2019-04-11T09:12:24.629Z,7.26
2019-04-11T09:15:12.723Z,7.08
2019-04-11T09:17:54.887Z,7.11
2019-04-11T09:20:23.443Z,7.29
2019-04-11T09:22:53.411Z,7.40
2019-04-11T09:25:41.226Z,7.33
2019-04-11T09:28:11.363Z,7.19
2019-04-11T09:30:49.932Z,6.90
2019-04-11T09:33:38.619Z,6.99
2019-04-11T09:36:26.045Z,7.16
2019-04-11T09:38:57.012Z,7.24
2019-04-11T09:41:30.209Z,7.40
2019-04-11T09:44:00.217Z,7.40
2019-04-11T09:46:32.748Z,7.44
2019-04-11T09:49:18.455Z,7.46
2019-04-11T09:51:58.220Z,7.72
2019-04-11T09:54:46.630Z,7.86
2019-04-11T09:57:16.551Z,7.77
2019-04-11T10:00:02.129Z,7.83
2019-04-11T10:02:50.535Z,7.75
2019-04-11T10:05:20.725Z,7.52
2019-04-11T10:07:52.338Z,7.71
2019-04-11T10:10:24.983Z,8.28
2019-04-11T10:13:08.830Z,8.28
2019-04-11T10:15:47.431Z,8.27
2019-04-11T10:18:25.279Z,8.11
2019-04-11T10:20:47.267Z,7.99
2019-04-11T10:23:34.501Z,8.05
2019-04-11T10:26:03.555Z,8.11
2019-04-11T10:28:45.965Z,8.11
2019-04-11T10:31:14.723Z,8.10
2019-04-11T10:33:57.409Z,8.08
2019-04-11T10:36:27.701Z,8.05
2019-04-11T10:39:03.197Z,7.65
2019-04-11T10:41:33.138Z,7.38
2019-04-11T10:44:01.686Z,7.37
2019-04-11T10:46:43.856Z,7.40
2019-04-11T10:49:19.990Z,7.16
2019-04-11T10:51:50.103Z,6.91
2019-04-11T10:54:19.679Z,6.68
2019-04-11T10:57:05.622Z,6.77
2019-04-11T10:59:42.791Z,6.88
2019-04-11T11:02:18.579Z,6.88
2019-04-11T11:04:48.536Z,6.85
2019-04-11T11:07:18.371Z,6.95
2019-04-11T11:09:54.681Z,6.91
2019-04-11T11:12:27.421Z,7.06
2019-04-11T11:15:00.869Z,7.09
2019-04-11T11:17:55.890Z,7.05
2019-04-11T11:20:24.392Z,7.20
2019-04-11T11:22:55.953Z,7.33
2019-04-11T11:25:28.830Z,7.50
2019-04-11T11:27:57.954Z,7.52
2019-04-11T11:30:33.398Z,7.57
2019-04-11T11:33:02.279Z,7.63
2019-04-11T11:35:50.104Z,7.67
2019-04-11T11:38:20.023Z,7.66
2019-04-11T11:41:07.903Z,7.41
2019-04-11T11:43:37.057Z,7.21
2019-04-11T11:46:19.647Z,7.13
2019-04-11T11:48:59.224Z,7.17
2019-04-11T11:51:35.368Z,7.15
2019-04-11T11:54:05.412Z,7.15
2019-04-11T11:56:35.269Z,7.00
2019-04-11T11:59:05.223Z,7.00
2019-04-11T12:01:33.671Z,6.90
2019-04-11T12:04:04.916Z,6.73
2019-04-11T12:06:33.438Z,6.78
2019-04-11T12:09:06.536Z,6.81
2019-04-11T12:11:36.446Z,6.95
2019-04-11T12:14:18.099Z,6.95
2019-04-11T12:16:58.718Z,6.99
2019-04-11T12:19:29.001Z,6.94
2019-04-11T12:21:59.910Z,7.09
2019-04-11T12:24:45.018Z,7.29
2019-04-11T12:27:16.276Z,7.19
2019-04-11T12:29:48.953Z,7.19
2019-04-11T12:32:24.275Z,7.32
2019-04-11T12:35:10.023Z,7.37
2019-04-11T12:37:43.367Z,7.34
2019-04-11T12:40:29.488Z,7.40
2019-04-11T12:42:59.499Z,7.39
2019-04-11T12:45:31.928Z,7.41
2019-04-11T12:48:00.126Z,7.39
2019-04-11T12:50:46.233Z,7.40
2019-04-11T12:53:14.694Z,7.49
2019-04-11T12:55:51.807Z,7.50
2019-04-11T12:58:21.611Z,7.58
2019-04-11T13:01:08.028Z,7.56
2019-04-11T13:03:53.820Z,7.60
2019-04-11T13:06:34.773Z,7.69
2019-04-11T13:09:11.633Z,7.65
2019-04-11T13:11:41.855Z,7.37
2019-04-11T13:14:12.294Z,7.37
2019-04-11T13:16:43.066Z,7.27
2019-04-11T13:19:31.072Z,7.18
2019-04-11T13:22:00.904Z,7.04
2019-04-11T13:24:48.713Z,7.04
2019-04-11T13:27:18.553Z,6.92
2019-04-11T13:29:54.328Z,6.80
2019-04-11T13:32:35.661Z,6.74
2019-04-11T13:35:22.457Z,6.75
2019-04-11T13:38:08.630Z,6.82
2019-04-11T13:40:40.938Z,6.86
2019-04-11T13:43:26.316Z,6.96
2019-04-11T13:46:10.753Z,7.14
2019-04-11T13:48:57.662Z,7.14
2019-04-11T13:51:31.067Z,7.22
2019-04-11T13:54:16.806Z,7.24
2019-04-11T13:57:02.501Z,7.39
2019-04-11T13:59:35.142Z,7.46
2019-04-11T14:02:17.749Z,7.42
2019-04-11T14:04:54.570Z,7.47
2019-04-11T14:07:30.544Z,7.36
2019-04-11T14:10:01.689Z,7.44
2019-04-11T14:12:29.047Z,7.44
2019-04-11T14:14:59.148Z,7.44
2019-04-11T14:17:44.902Z,7.51
2019-04-11T14:20:30.361Z,7.51
2019-04-11T14:23:06.001Z,7.51
2019-04-11T14:25:35.838Z,7.56
2019-04-11T14:28:08.175Z,7.56
2019-04-11T14:30:37.878Z,7.07
2019-04-11T14:33:06.347Z,7.07
2019-04-11T14:35:48.764Z,7.26
2019-04-11T14:38:18.790Z,7.44
2019-04-11T14:41:01.204Z,7.59
2019-04-11T14:43:32.635Z,7.61
2019-04-11T14:46:17.667Z,7.46
2019-04-11T14:48:47.527Z,7.55
2019-04-11T14:51:33.415Z,7.37
2019-04-11T14:54:12.112Z,7.39
2019-04-11T14:56:52.365Z,7.33
2019-04-11T14:59:28.564Z,7.18
2019-04-11T15:02:04.131Z,7.19
2019-04-11T15:04:46.596Z,7.19
2019-04-11T15:07:16.477Z,7.15
2019-04-11T15:09:58.299Z,7.25
2019-04-11T15:12:30.879Z,7.31
2019-04-11T15:15:06.309Z,7.19
2019-04-11T15:17:36.484Z,7.03
2019-04-11T15:20:06.875Z,7.03
2019-04-11T15:22:48.827Z,7.05
2019-04-11T15:25:28.299Z,7.02
2019-04-11T15:28:03.851Z,7.30
2019-04-11T15:30:50.405Z,7.35
2019-04-11T15:33:20.653Z,7.55
2019-04-11T15:35:58.024Z,7.61
2019-04-11T15:38:43.884Z,7.83
2019-04-11T15:41:12.558Z,7.89
2019-04-11T15:43:48.528Z,8.00
2019-04-11T15:46:18.363Z,8.17
2019-04-11T15:49:04.485Z,8.23
2019-04-11T15:51:36.725Z,8.20
2019-04-11T15:54:15.674Z,8.09
2019-04-11T15:56:45.809Z,8.03
2019-04-11T15:59:15.663Z,7.90
2019-04-11T16:02:01.601Z,7.86
2019-04-11T16:04:31.527Z,7.79
2019-04-11T16:07:13.192Z,7.61
2019-04-11T16:09:43.693Z,7.37
2019-04-11T16:12:19.247Z,7.36
2019-04-11T16:14:49.325Z,7.21
2019-04-11T16:17:35.133Z,7.03
2019-04-11T16:20:04.139Z,7.01
2019-04-11T16:22:37.032Z,7.02
2019-04-11T16:25:10.492Z,6.97
2019-04-11T16:27:56.666Z,6.84
2019-04-11T16:30:26.501Z,6.86
2019-04-11T16:33:08.361Z,6.85
2019-04-11T16:35:56.888Z,6.69
2019-04-11T16:38:26.426Z,6.62
2019-04-11T16:41:12.739Z,6.62
2019-04-11T16:43:42.631Z,6.58
2019-04-11T16:46:25.367Z,6.34
2019-04-11T16:48:55.641Z,6.33
2019-04-11T16:51:30.722Z,6.21
2019-04-11T16:53:53.848Z,6.20
2019-04-11T16:56:22.329Z,6.26
2019-04-11T16:58:50.851Z,6.23
2019-04-11T17:01:20.756Z,6.16
2019-04-11T17:03:49.322Z,6.21
2019-04-11T17:06:37.342Z,6.19
2019-04-11T17:09:08.644Z,6.07
2019-04-11T17:11:37.295Z,5.95
2019-04-11T17:14:05.777Z,5.88
2019-04-11T17:16:34.239Z,5.83
2019-04-11T17:19:05.180Z,5.66
2019-04-11T17:21:42.681Z,5.67
2019-04-11T17:24:02.675Z,5.69
2019-04-11T17:26:31.245Z,5.64
2019-04-11T17:28:59.810Z,5.57
2019-04-11T17:31:28.203Z,5.56
2019-04-11T17:33:56.819Z,5.56
2019-04-11T17:36:26.775Z,5.51
2019-04-11T17:38:54.992Z,5.42
2019-04-11T17:41:23.178Z,5.33
2019-04-11T17:43:51.905Z,5.29
2019-04-11T17:46:20.145Z,5.34
2019-04-11T17:48:50.406Z,5.28
2019-04-11T17:51:18.524Z,5.22
2019-04-11T17:53:46.734Z,5.19
2019-04-11T17:56:15.009Z,5.15
2019-04-11T17:58:43.202Z,5.14
2019-04-11T18:01:11.477Z,5.07
2019-04-11T18:03:41.768Z,5.03
2019-04-11T18:06:09.617Z,4.94
2019-04-11T18:08:37.807Z,4.91
2019-04-11T18:11:06.018Z,4.87
2019-04-11T18:13:34.220Z,4.82
2019-04-11T18:16:03.320Z,4.70
2019-04-11T18:18:34.934Z,4.70
2019-04-11T18:21:01.512Z,4.70
2019-04-11T18:23:29.736Z,4.68
2019-04-11T18:25:57.936Z,4.63
2019-04-11T18:28:26.141Z,4.63
2019-04-11T18:30:54.752Z,4.69
2019-04-11T18:33:24.569Z,4.69
2019-04-11T18:35:52.788Z,4.71
2019-04-11T18:38:21.735Z,4.68
2019-04-11T18:40:49.948Z,4.69
2019-04-11T18:43:18.155Z,4.61
2019-04-11T18:45:47.038Z,4.63
2019-04-11T18:48:15.240Z,4.65
2019-04-11T18:50:45.161Z,4.66
2019-04-11T18:53:13.379Z,4.62
2019-04-11T18:55:41.575Z,4.66
2019-04-11T18:58:09.791Z,4.68
2019-04-11T19:00:38.229Z,4.70
2019-04-11T19:03:08.068Z,4.59
2019-04-11T19:05:37.726Z,4.59
2019-04-11T19:08:05.926Z,4.58
2019-04-11T19:10:34.146Z,4.59
2019-04-11T19:13:02.355Z,4.59
2019-04-11T19:15:30.553Z,4.53
2019-04-11T19:18:06.328Z,4.55
2019-04-11T19:20:28.674Z,4.50
2019-04-11T19:22:56.878Z,4.50
2019-04-11T19:25:25.067Z,4.54
2019-04-11T19:27:54.449Z,4.52
2019-04-11T19:30:23.999Z,4.50
2019-04-11T19:32:53.132Z,4.50
2019-04-11T19:35:21.337Z,4.53
2019-04-11T19:37:49.557Z,4.52
2019-04-11T19:40:17.758Z,4.52
2019-04-11T19:42:48.865Z,4.49
2019-04-11T19:45:16.896Z,4.52
2019-04-11T19:47:45.921Z,4.52
2019-04-11T19:50:16.169Z,4.49
2019-04-11T19:52:45.752Z,4.51
2019-04-11T19:55:16.386Z,4.48
2019-04-11T19:57:44.601Z,4.48
2019-04-11T20:00:14.176Z,4.48
2019-04-11T20:02:42.368Z,4.49
2019-04-11T20:05:12.258Z,4.49
2019-04-11T20:07:40.664Z,4.48
2019-04-11T20:10:08.894Z,4.47
2019-04-11T20:12:37.095Z,4.47
2019-04-11T20:15:08.611Z,4.45
2019-04-11T20:17:44.016Z,4.49
2019-04-11T20:20:07.688Z,4.49
2019-04-11T20:22:39.275Z,4.48
2019-04-11T20:25:06.847Z,4.50
2019-04-11T20:27:35.076Z,4.44
2019-04-11T20:30:03.846Z,4.42
2019-04-11T20:32:33.136Z,4.39
2019-04-11T20:35:02.772Z,4.36
2019-04-11T20:37:39.051Z,4.33
2019-04-11T20:40:01.584Z,4.33
2019-04-11T20:42:29.783Z,4.34
2019-04-11T20:44:58.468Z,4.33
2019-04-11T20:47:29.494Z,4.24
2019-04-11T20:49:57.192Z,4.24
2019-04-11T20:52:25.395Z,4.18
2019-04-11T20:54:54.068Z,4.16
2019-04-11T20:57:25.866Z,4.19
2019-04-11T20:59:52.481Z,4.18
2019-04-11T21:02:20.651Z,4.19
2019-04-11T21:04:49.343Z,4.22
2019-04-11T21:07:17.541Z,4.26
2019-04-11T21:09:45.741Z,4.29
2019-04-11T21:12:14.019Z,4.32
2019-04-11T21:14:42.217Z,4.32
2019-04-11T21:17:10.434Z,4.36
2019-04-11T21:19:38.642Z,4.37
2019-04-11T21:22:06.855Z,4.35
2019-04-11T21:24:35.049Z,4.33
2019-04-11T21:27:03.271Z,4.39
2019-04-11T21:29:31.454Z,4.33
2019-04-11T21:32:01.173Z,4.33
2019-04-11T21:34:29.936Z,4.38
2019-04-11T21:37:01.589Z,4.43
2019-04-11T21:39:29.437Z,4.41
2019-04-11T21:41:57.646Z,4.36
2019-04-11T21:44:25.853Z,4.34
2019-04-11T21:46:54.076Z,4.30
2019-04-11T21:49:22.268Z,4.23
2019-04-11T21:51:50.480Z,4.23
2019-04-11T21:54:18.679Z,4.26
2019-04-11T21:56:49.362Z,4.25
2019-04-11T21:59:20.041Z,4.27
2019-04-11T22:01:46.981Z,4.27
2019-04-11T22:04:16.309Z,4.22
2019-04-11T22:06:44.512Z,4.28
2019-04-11T22:09:14.427Z,4.30
2019-04-11T22:11:42.647Z,4.30
2019-04-11T22:14:11.792Z,4.27
2019-04-11T22:16:44.139Z,4.28
2019-04-11T22:19:13.963Z,4.25
2019-04-11T22:21:39.871Z,4.26
2019-04-11T22:24:08.084Z,4.26
2019-04-11T22:26:36.286Z,4.26
2019-04-11T22:29:04.502Z,4.27
2019-04-11T22:31:32.694Z,4.26
2019-04-11T22:34:10.986Z,4.24
2019-04-11T22:36:39.182Z,4.10
2019-04-11T22:39:08.798Z,4.08
2019-04-11T22:41:36.994Z,4.08
2019-04-11T22:44:07.792Z,4.04
2019-04-11T22:46:37.377Z,3.99
2019-04-11T22:49:08.664Z,3.93
2019-04-11T22:51:34.977Z,3.87
2019-04-11T22:54:03.192Z,3.77
2019-04-11T22:56:31.388Z,3.71
2019-04-11T22:58:59.576Z,3.62
2019-04-11T23:01:27.785Z,3.56
2019-04-11T23:03:57.654Z,3.56
2019-04-11T23:06:25.814Z,3.55
2019-04-11T23:08:54.010Z,3.54
2019-04-11T23:11:22.219Z,3.52
2019-04-11T23:13:50.419Z,3.36
2019-04-11T23:16:19.081Z,3.36
2019-04-11T23:18:47.271Z,3.30
2019-04-11T23:21:15.474Z,3.21
2019-04-11T23:23:43.666Z,3.13
2019-04-11T23:26:12.977Z,3.08
2019-04-11T23:28:41.178Z,3.05
2019-04-11T23:31:11.010Z,2.99
2019-04-11T23:33:39.201Z,2.87
2019-04-11T23:36:07.405Z,2.76
2019-04-11T23:38:35.597Z,2.64
2019-04-11T23:41:03.805Z,2.56
2019-04-11T23:43:31.999Z,2.49
2019-04-11T23:46:00.200Z,2.50
2019-04-11T23:48:28.643Z,2.48
2019-04-11T23:50:56.848Z,2.43
2019-04-11T23:53:28.131Z,2.39
2019-04-11T23:55:54.976Z,2.38
2019-04-11T23:58:23.180Z,2.38
